Volga, Kentucky
Current Conditions -  °F | °C
As of 4:35 AM on Monday 24 Nov 2014 (Local Time) from KSJS Reporting Station
Scattered Clouds Scattered Clouds  
Wind Chill: 64°   Ceiling: Unl
Heat Index: 64°   Visibility: 10mi
Dew Point: 52°   Wind: 10mph
Humidity: 66%   Direction: 210°SSW
Pressure: 29.52"   Gusts: 20mph
Location:  37.9467°N, 82.8859°W
Report Text: KSJS 240935Z AUTO 21009G17KT 10SM SCT042 SCT060 18/11 A2952 RMK AO2 T01750111
Loading
Personal Weather Stations






























Interactive Weather Map New forecast layout! Learn more

10-Day Weather Forecast

Advertisements
Track Severe Weather on mobile